sensor_id;sensor_type;location;lat;lon;timestamp;pressure;altitude;pressure_sealevel;temperature;humidity
6942;BME280;3510;43.200;27.920;2023-04-07T00:00:22;100876.66;;;14.40;46.01
6942;BME280;3510;43.200;27.920;2023-04-07T00:02:49;100875.91;;;14.29;46.77
6942;BME280;3510;43.200;27.920;2023-04-07T00:05:18;100880.88;;;14.39;47.43
6942;BME280;3510;43.200;27.920;2023-04-07T00:07:46;100871.56;;;14.63;47.48
6942;BME280;3510;43.200;27.920;2023-04-07T00:10:13;100866.13;;;14.22;48.35
6942;BME280;3510;43.200;27.920;2023-04-07T00:12:39;100867.66;;;14.32;48.59
6942;BME280;3510;43.200;27.920;2023-04-07T00:15:08;100869.88;;;14.75;49.00
6942;BME280;3510;43.200;27.920;2023-04-07T00:17:35;100872.88;;;14.70;49.60
6942;BME280;3510;43.200;27.920;2023-04-07T00:20:17;100867.25;;;14.14;50.55
6942;BME280;3510;43.200;27.920;2023-04-07T00:22:46;100868.06;;;14.61;50.16
6942;BME280;3510;43.200;27.920;2023-04-07T00:25:13;100869.66;;;14.12;51.19
6942;BME280;3510;43.200;27.920;2023-04-07T00:27:40;100870.34;;;13.98;51.58
6942;BME280;3510;43.200;27.920;2023-04-07T00:30:08;100870.38;;;14.46;50.63
6942;BME280;3510;43.200;27.920;2023-04-07T00:32:39;100865.66;;;14.27;50.74
6942;BME280;3510;43.200;27.920;2023-04-07T00:35:15;100865.66;;;14.51;49.20
6942;BME280;3510;43.200;27.920;2023-04-07T00:40:20;100872.03;;;14.34;47.31
6942;BME280;3510;43.200;27.920;2023-04-07T00:42:48;100868.38;;;14.66;46.13
6942;BME280;3510;43.200;27.920;2023-04-07T00:45:15;100865.97;;;14.44;45.71
6942;BME280;3510;43.200;27.920;2023-04-07T00:47:43;100865.19;;;14.45;44.82
6942;BME280;3510;43.200;27.920;2023-04-07T00:50:11;100873.00;;;14.48;44.35
6942;BME280;3510;43.200;27.920;2023-04-07T00:52:39;100868.97;;;14.50;43.74
6942;BME280;3510;43.200;27.920;2023-04-07T00:55:07;100874.41;;;14.68;43.27
6942;BME280;3510;43.200;27.920;2023-04-07T00:57:36;100879.59;;;14.46;43.37
6942;BME280;3510;43.200;27.920;2023-04-07T01:00:03;100880.38;;;14.45;42.15
6942;BME280;3510;43.200;27.920;2023-04-07T01:02:35;100878.50;;;14.42;41.51
6942;BME280;3510;43.200;27.920;2023-04-07T01:05:15;100874.88;;;14.62;40.93
6942;BME280;3510;43.200;27.920;2023-04-07T01:07:46;100872.00;;;14.46;40.75
6942;BME280;3510;43.200;27.920;2023-04-07T01:10:19;100871.16;;;14.34;39.95
6942;BME280;3510;43.200;27.920;2023-04-07T01:12:51;100873.06;;;14.24;39.50
6942;BME280;3510;43.200;27.920;2023-04-07T01:15:23;100865.41;;;14.48;38.39
6942;BME280;3510;43.200;27.920;2023-04-07T01:17:54;100872.03;;;14.34;37.24
6942;BME280;3510;43.200;27.920;2023-04-07T01:21:01;100868.19;;;14.51;38.30
6942;BME280;3510;43.200;27.920;2023-04-07T01:23:35;100870.44;;;14.71;37.33
6942;BME280;3510;43.200;27.920;2023-04-07T01:26:13;100873.47;;;14.54;37.54
6942;BME280;3510;43.200;27.920;2023-04-07T01:28:48;100867.00;;;14.22;37.40
6942;BME280;3510;43.200;27.920;2023-04-07T01:31:23;100860.13;;;14.45;36.28
6942;BME280;3510;43.200;27.920;2023-04-07T01:33:55;100872.50;;;14.28;35.55
6942;BME280;3510;43.200;27.920;2023-04-07T01:36:22;100872.88;;;13.86;35.54
6942;BME280;3510;43.200;27.920;2023-04-07T01:38:52;100872.66;;;14.67;34.88
6942;BME280;3510;43.200;27.920;2023-04-07T01:41:20;100870.81;;;14.41;35.03
6942;BME280;3510;43.200;27.920;2023-04-07T01:44:04;100870.47;;;14.60;35.57
6942;BME280;3510;43.200;27.920;2023-04-07T01:46:40;100870.84;;;14.77;35.62
6942;BME280;3510;43.200;27.920;2023-04-07T01:49:10;100878.53;;;14.54;35.93
6942;BME280;3510;43.200;27.920;2023-04-07T01:51:38;100875.31;;;14.45;34.90
6942;BME280;3510;43.200;27.920;2023-04-07T01:54:19;100872.91;;;14.58;34.80
6942;BME280;3510;43.200;27.920;2023-04-07T01:57:01;100863.00;;;14.49;34.64
6942;BME280;3510;43.200;27.920;2023-04-07T01:59:27;100865.31;;;14.35;33.99
6942;BME280;3510;43.200;27.920;2023-04-07T02:02:08;100868.97;;;14.50;34.07
6942;BME280;3510;43.200;27.920;2023-04-07T02:04:36;100863.47;;;14.81;33.64
6942;BME280;3510;43.200;27.920;2023-04-07T02:07:08;100866.09;;;14.34;33.82
6942;BME280;3510;43.200;27.920;2023-04-07T02:09:37;100866.53;;;14.51;33.86
6942;BME280;3510;43.200;27.920;2023-04-07T02:12:06;100865.53;;;14.86;33.90
6942;BME280;3510;43.200;27.920;2023-04-07T02:14:35;100860.81;;;15.04;34.54
6942;BME280;3510;43.200;27.920;2023-04-07T02:17:03;100868.84;;;14.85;35.13
6942;BME280;3510;43.200;27.920;2023-04-07T02:19:32;100871.38;;;14.85;35.39
6942;BME280;3510;43.200;27.920;2023-04-07T02:22:01;100880.16;;;14.42;36.99
6942;BME280;3510;43.200;27.920;2023-04-07T02:24:29;100868.03;;;14.01;37.87
6942;BME280;3510;43.200;27.920;2023-04-07T02:26:56;100871.53;;;14.15;37.66
6942;BME280;3510;43.200;27.920;2023-04-07T02:29:25;100876.88;;;14.43;37.37
6942;BME280;3510;43.200;27.920;2023-04-07T02:31:54;100880.53;;;14.46;37.87
6942;BME280;3510;43.200;27.920;2023-04-07T02:34:31;100874.59;;;14.22;37.99
6942;BME280;3510;43.200;27.920;2023-04-07T02:36:57;100883.19;;;14.01;39.16
6942;BME280;3510;43.200;27.920;2023-04-07T02:39:31;100889.91;;;14.00;39.91
6942;BME280;3510;43.200;27.920;2023-04-07T02:41:59;100888.47;;;14.51;39.94
6942;BME280;3510;43.200;27.920;2023-04-07T02:44:26;100896.72;;;14.01;40.87
6942;BME280;3510;43.200;27.920;2023-04-07T02:46:52;100892.56;;;14.02;41.49
6942;BME280;3510;43.200;27.920;2023-04-07T03:05:32;100902.88;;;14.05;42.20
6942;BME280;3510;43.200;27.920;2023-04-07T03:08:12;100901.38;;;13.84;41.51
6942;BME280;3510;43.200;27.920;2023-04-07T03:10:53;100905.19;;;13.90;40.98
6942;BME280;3510;43.200;27.920;2023-04-07T03:13:19;100909.69;;;14.29;40.53
6942;BME280;3510;43.200;27.920;2023-04-07T03:16:00;100898.19;;;13.98;40.59
6942;BME280;3510;43.200;27.920;2023-04-07T03:18:40;100905.75;;;13.74;40.76
6942;BME280;3510;43.200;27.920;2023-04-07T03:24:03;100903.97;;;13.62;40.07
6942;BME280;3510;43.200;27.920;2023-04-07T03:26:30;100912.47;;;13.86;39.04
6942;BME280;3510;43.200;27.920;2023-04-07T03:28:57;100911.09;;;13.55;38.83
6942;BME280;3510;43.200;27.920;2023-04-07T03:31:24;100914.34;;;13.76;38.87
6942;BME280;3510;43.200;27.920;2023-04-07T03:33:51;100921.38;;;13.92;37.93
6942;BME280;3510;43.200;27.920;2023-04-07T03:36:17;100921.91;;;13.31;38.33
6942;BME280;3510;43.200;27.920;2023-04-07T03:38:45;100927.47;;;13.61;37.92
6942;BME280;3510;43.200;27.920;2023-04-07T03:41:13;100930.16;;;13.74;37.15
6942;BME280;3510;43.200;27.920;2023-04-07T03:43:40;100938.13;;;14.02;36.41
6942;BME280;3510;43.200;27.920;2023-04-07T03:46:07;100938.00;;;13.89;36.48
6942;BME280;3510;43.200;27.920;2023-04-07T03:48:34;100933.38;;;13.95;36.45
6942;BME280;3510;43.200;27.920;2023-04-07T03:51:00;100941.72;;;13.94;35.92
6942;BME280;3510;43.200;27.920;2023-04-07T03:53:27;100931.63;;;14.06;36.10
6942;BME280;3510;43.200;27.920;2023-04-07T03:55:54;100938.63;;;13.74;35.95
6942;BME280;3510;43.200;27.920;2023-04-07T03:58:22;100941.63;;;14.39;34.90
6942;BME280;3510;43.200;27.920;2023-04-07T04:00:48;100944.59;;;13.98;35.20
6942;BME280;3510;43.200;27.920;2023-04-07T04:03:14;100939.16;;;13.70;35.38
6942;BME280;3510;43.200;27.920;2023-04-07T04:05:41;100945.03;;;13.93;35.18
6942;BME280;3510;43.200;27.920;2023-04-07T04:08:08;100947.97;;;13.75;35.76
6942;BME280;3510;43.200;27.920;2023-04-07T04:10:34;100946.81;;;14.06;34.79
6942;BME280;3510;43.200;27.920;2023-04-07T04:13:01;100956.16;;;13.95;34.40
6942;BME280;3510;43.200;27.920;2023-04-07T04:15:32;100959.34;;;14.04;34.53
6942;BME280;3510;43.200;27.920;2023-04-07T04:17:58;100963.13;;;13.75;35.16
6942;BME280;3510;43.200;27.920;2023-04-07T04:20:28;100964.97;;;13.54;34.40
6942;BME280;3510;43.200;27.920;2023-04-07T04:22:55;100970.09;;;13.90;34.65
6942;BME280;3510;43.200;27.920;2023-04-07T04:25:28;100964.94;;;14.12;34.26
6942;BME280;3510;43.200;27.920;2023-04-07T04:27:55;100967.94;;;14.06;34.18
6942;BME280;3510;43.200;27.920;2023-04-07T04:32:59;100972.41;;;13.87;34.25
6942;BME280;3510;43.200;27.920;2023-04-07T04:35:30;100973.06;;;13.72;34.64
6942;BME280;3510;43.200;27.920;2023-04-07T04:37:57;100969.22;;;13.89;34.13
6942;BME280;3510;43.200;27.920;2023-04-07T04:40:24;100978.44;;;13.65;34.24
6942;BME280;3510;43.200;27.920;2023-04-07T04:42:57;100977.34;;;13.85;34.03
6942;BME280;3510;43.200;27.920;2023-04-07T04:45:25;100975.28;;;13.91;33.65
6942;BME280;3510;43.200;27.920;2023-04-07T04:48:02;100976.31;;;13.60;33.98
6942;BME280;3510;43.200;27.920;2023-04-07T04:50:29;100978.75;;;13.70;34.11
6942;BME280;3510;43.200;27.920;2023-04-07T04:52:55;100981.47;;;13.95;33.82
6942;BME280;3510;43.200;27.920;2023-04-07T04:55:27;100984.84;;;14.42;33.24
6942;BME280;3510;43.200;27.920;2023-04-07T04:57:55;100993.00;;;14.03;33.36
6942;BME280;3510;43.200;27.920;2023-04-07T05:00:25;100992.69;;;14.34;33.15
6942;BME280;3510;43.200;27.920;2023-04-07T05:02:53;100995.88;;;14.08;33.21
6942;BME280;3510;43.200;27.920;2023-04-07T05:05:24;100988.25;;;13.96;33.39
6942;BME280;3510;43.200;27.920;2023-04-07T05:07:52;100997.88;;;14.47;32.56
6942;BME280;3510;43.200;27.920;2023-04-07T05:10:23;101003.69;;;14.34;32.41
6942;BME280;3510;43.200;27.920;2023-04-07T05:12:49;101001.53;;;14.39;32.45
6942;BME280;3510;43.200;27.920;2023-04-07T05:15:30;100999.75;;;14.26;32.89
6942;BME280;3510;43.200;27.920;2023-04-07T05:17:56;100990.94;;;14.21;32.63
6942;BME280;3510;43.200;27.920;2023-04-07T05:20:27;101004.44;;;14.92;31.76
6942;BME280;3510;43.200;27.920;2023-04-07T05:23:02;100998.53;;;14.68;32.41
6942;BME280;3510;43.200;27.920;2023-04-07T05:25:36;101011.59;;;15.09;32.28
6942;BME280;3510;43.200;27.920;2023-04-07T05:28:03;101012.28;;;14.71;32.69
6942;BME280;3510;43.200;27.920;2023-04-07T05:30:30;101018.47;;;14.75;32.14
6942;BME280;3510;43.200;27.920;2023-04-07T05:32:57;101004.56;;;14.23;32.55
6942;BME280;3510;43.200;27.920;2023-04-07T05:35:24;100995.13;;;14.44;31.97
6942;BME280;3510;43.200;27.920;2023-04-07T05:37:52;100974.88;;;14.20;31.99
6942;BME280;3510;43.200;27.920;2023-04-07T05:40:21;100899.91;;;13.75;32.24
6942;BME280;3510;43.200;27.920;2023-04-07T05:42:51;100940.09;;;14.18;32.53
6942;BME280;3510;43.200;27.920;2023-04-07T05:45:19;101022.88;;;14.77;31.67
6942;BME280;3510;43.200;27.920;2023-04-07T05:47:46;101017.53;;;14.98;31.75
6942;BME280;3510;43.200;27.920;2023-04-07T05:50:15;101018.19;;;15.07;31.61
6942;BME280;3510;43.200;27.920;2023-04-07T05:52:45;100957.63;;;14.87;31.73
6942;BME280;3510;43.200;27.920;2023-04-07T05:55:15;100981.84;;;15.32;31.21
6942;BME280;3510;43.200;27.920;2023-04-07T05:57:42;101032.66;;;15.70;30.82
6942;BME280;3510;43.200;27.920;2023-04-07T06:00:10;101015.47;;;15.66;30.72
6942;BME280;3510;43.200;27.920;2023-04-07T06:02:49;101029.94;;;15.55;31.03
6942;BME280;3510;43.200;27.920;2023-04-07T06:05:35;101031.13;;;15.85;31.14
6942;BME280;3510;43.200;27.920;2023-04-07T06:08:08;101002.31;;;15.10;31.84
6942;BME280;3510;43.200;27.920;2023-04-07T06:10:37;101010.56;;;15.44;31.79
6942;BME280;3510;43.200;27.920;2023-04-07T06:13:06;101008.97;;;15.58;32.03
6942;BME280;3510;43.200;27.920;2023-04-07T06:15:36;101035.75;;;15.66;32.90
6942;BME280;3510;43.200;27.920;2023-04-07T06:18:03;101031.78;;;15.83;32.51
6942;BME280;3510;43.200;27.920;2023-04-07T06:20:30;101025.13;;;15.71;32.65
6942;BME280;3510;43.200;27.920;2023-04-07T06:22:56;101047.66;;;15.67;32.93
6942;BME280;3510;43.200;27.920;2023-04-07T06:25:28;101022.56;;;15.21;34.04
6942;BME280;3510;43.200;27.920;2023-04-07T06:28:12;101019.84;;;15.43;33.57
6942;BME280;3510;43.200;27.920;2023-04-07T06:30:39;100992.84;;;15.69;32.35
6942;BME280;3510;43.200;27.920;2023-04-07T06:38:16;101011.69;;;15.72;32.76
6942;BME280;3510;43.200;27.920;2023-04-07T06:40:44;100997.38;;;15.61;33.16
6942;BME280;3510;43.200;27.920;2023-04-07T06:43:19;101052.97;;;17.42;31.21
6942;BME280;3510;43.200;27.920;2023-04-07T06:45:46;100988.75;;;15.97;31.43
6942;BME280;3510;43.200;27.920;2023-04-07T06:48:13;101053.22;;;16.13;31.59
6942;BME280;3510;43.200;27.920;2023-04-07T06:50:40;101059.25;;;16.66;31.20
6942;BME280;3510;43.200;27.920;2023-04-07T06:53:08;101052.97;;;15.58;32.42
6942;BME280;3510;43.200;27.920;2023-04-07T06:55:41;101057.53;;;15.76;32.24
6942;BME280;3510;43.200;27.920;2023-04-07T06:58:13;101063.16;;;16.48;30.96
6942;BME280;3510;43.200;27.920;2023-04-07T07:00:42;101065.50;;;16.72;31.03
6942;BME280;3510;43.200;27.920;2023-04-07T07:03:08;101010.47;;;16.06;30.95
6942;BME280;3510;43.200;27.920;2023-04-07T07:05:36;101060.81;;;16.25;31.47
6942;BME280;3510;43.200;27.920;2023-04-07T07:08:04;101062.13;;;16.06;30.64
6942;BME280;3510;43.200;27.920;2023-04-07T07:10:31;101046.25;;;16.35;30.61
6942;BME280;3510;43.200;27.920;2023-04-07T07:12:58;101071.97;;;16.66;30.29
6942;BME280;3510;43.200;27.920;2023-04-07T07:15:25;101060.25;;;16.82;28.63
6942;BME280;3510;43.200;27.920;2023-04-07T07:17:53;101083.72;;;16.78;28.87
6942;BME280;3510;43.200;27.920;2023-04-07T07:20:20;101072.25;;;17.39;29.37
6942;BME280;3510;43.200;27.920;2023-04-07T07:22:47;101081.03;;;17.72;29.21
6942;BME280;3510;43.200;27.920;2023-04-07T07:25:15;101070.03;;;16.89;28.38
6942;BME280;3510;43.200;27.920;2023-04-07T07:27:42;101082.59;;;17.98;27.49
6942;BME280;3510;43.200;27.920;2023-04-07T07:30:09;101077.78;;;17.60;26.57
6942;BME280;3510;43.200;27.920;2023-04-07T07:32:37;101089.28;;;17.81;25.79
6942;BME280;3510;43.200;27.920;2023-04-07T07:35:05;101063.09;;;17.28;25.73
6942;BME280;3510;43.200;27.920;2023-04-07T07:37:33;101097.66;;;17.52;25.62
6942;BME280;3510;43.200;27.920;2023-04-07T07:40:03;101096.50;;;17.88;25.08
6942;BME280;3510;43.200;27.920;2023-04-07T07:42:36;101099.53;;;16.87;25.98
6942;BME280;3510;43.200;27.920;2023-04-07T07:45:05;101086.91;;;17.02;25.60
6942;BME280;3510;43.200;27.920;2023-04-07T07:47:32;101090.75;;;16.95;25.95
6942;BME280;3510;43.200;27.920;2023-04-07T07:50:02;101102.69;;;17.79;25.17
6942;BME280;3510;43.200;27.920;2023-04-07T07:52:30;101093.25;;;17.22;26.04
6942;BME280;3510;43.200;27.920;2023-04-07T07:54:57;101093.19;;;18.19;24.74
6942;BME280;3510;43.200;27.920;2023-04-07T07:57:25;101116.88;;;17.47;24.87
6942;BME280;3510;43.200;27.920;2023-04-07T07:59:51;101102.31;;;18.30;24.48
6942;BME280;3510;43.200;27.920;2023-04-07T08:02:22;101097.78;;;17.69;25.27
6942;BME280;3510;43.200;27.920;2023-04-07T08:04:55;100994.97;;;16.41;25.37
6942;BME280;3510;43.200;27.920;2023-04-07T08:07:21;101075.03;;;17.29;24.85
6942;BME280;3510;43.200;27.920;2023-04-07T08:09:50;101097.84;;;18.11;24.52
6942;BME280;3510;43.200;27.920;2023-04-07T08:12:17;101095.66;;;18.47;24.18
6942;BME280;3510;43.200;27.920;2023-04-07T08:14:43;101098.50;;;17.66;24.69
6942;BME280;3510;43.200;27.920;2023-04-07T08:17:10;101092.59;;;17.52;24.81
6942;BME280;3510;43.200;27.920;2023-04-07T08:19:38;101090.75;;;17.78;24.65
6942;BME280;3510;43.200;27.920;2023-04-07T08:22:18;101087.94;;;17.60;24.29
6942;BME280;3510;43.200;27.920;2023-04-07T08:24:47;101057.34;;;18.16;24.19
6942;BME280;3510;43.200;27.920;2023-04-07T08:27:16;101101.19;;;18.55;23.98
6942;BME280;3510;43.200;27.920;2023-04-07T08:29:43;101111.63;;;18.30;23.78
6942;BME280;3510;43.200;27.920;2023-04-07T08:32:10;101120.31;;;17.76;24.41
6942;BME280;3510;43.200;27.920;2023-04-07T08:34:38;101096.34;;;18.59;23.71
6942;BME280;3510;43.200;27.920;2023-04-07T08:37:09;101109.59;;;18.54;23.68
6942;BME280;3510;43.200;27.920;2023-04-07T08:39:37;101083.06;;;18.65;23.46
6942;BME280;3510;43.200;27.920;2023-04-07T08:42:10;101107.06;;;17.53;24.72
6942;BME280;3510;43.200;27.920;2023-04-07T08:44:40;101096.66;;;17.77;24.96
6942;BME280;3510;43.200;27.920;2023-04-07T08:47:08;101072.72;;;18.18;24.42
6942;BME280;3510;43.200;27.920;2023-04-07T08:49:36;101108.81;;;18.70;24.27
6942;BME280;3510;43.200;27.920;2023-04-07T08:52:11;101118.28;;;18.87;23.92
6942;BME280;3510;43.200;27.920;2023-04-07T08:54:42;101098.03;;;18.29;23.83
6942;BME280;3510;43.200;27.920;2023-04-07T08:57:14;101119.91;;;19.16;23.70
6942;BME280;3510;43.200;27.920;2023-04-07T08:59:44;101012.84;;;18.55;23.16
6942;BME280;3510;43.200;27.920;2023-04-07T09:02:17;101129.84;;;18.66;23.66
6942;BME280;3510;43.200;27.920;2023-04-07T09:04:45;101127.34;;;18.23;24.33
6942;BME280;3510;43.200;27.920;2023-04-07T09:07:15;101101.16;;;17.96;24.48
6942;BME280;3510;43.200;27.920;2023-04-07T09:09:42;101127.00;;;18.46;24.14
6942;BME280;3510;43.200;27.920;2023-04-07T09:12:12;101078.84;;;17.63;24.16
6942;BME280;3510;43.200;27.920;2023-04-07T09:17:35;101137.09;;;19.35;23.36
6942;BME280;3510;43.200;27.920;2023-04-07T09:20:15;101134.28;;;19.78;23.05
6942;BME280;3510;43.200;27.920;2023-04-07T09:22:43;101133.69;;;19.20;23.48
6942;BME280;3510;43.200;27.920;2023-04-07T09:25:13;101041.50;;;18.51;23.70
6942;BME280;3510;43.200;27.920;2023-04-07T09:27:42;101124.44;;;18.91;23.77
6942;BME280;3510;43.200;27.920;2023-04-07T09:30:31;101134.66;;;18.76;24.55
6942;BME280;3510;43.200;27.920;2023-04-07T09:33:02;101097.13;;;18.58;24.82
6942;BME280;3510;43.200;27.920;2023-04-07T09:35:29;101139.09;;;19.41;24.72
6942;BME280;3510;43.200;27.920;2023-04-07T09:38:01;101139.66;;;19.66;24.43
6942;BME280;3510;43.200;27.920;2023-04-07T09:40:29;101095.03;;;19.92;23.36
6942;BME280;3510;43.200;27.920;2023-04-07T09:42:56;101068.03;;;18.70;24.12
6942;BME280;3510;43.200;27.920;2023-04-07T09:45:24;101145.16;;;19.74;23.33
6942;BME280;3510;43.200;27.920;2023-04-07T09:47:52;101124.31;;;19.19;23.69
6942;BME280;3510;43.200;27.920;2023-04-07T09:50:35;101151.91;;;21.28;21.76
6942;BME280;3510;43.200;27.920;2023-04-07T09:53:02;101084.16;;;20.48;22.02
6942;BME280;3510;43.200;27.920;2023-04-07T09:55:32;101144.91;;;21.24;22.09
6942;BME280;3510;43.200;27.920;2023-04-07T09:58:00;101096.44;;;21.09;22.24
6942;BME280;3510;43.200;27.920;2023-04-07T10:00:32;101123.50;;;20.50;22.90
6942;BME280;3510;43.200;27.920;2023-04-07T10:05:51;101150.44;;;19.77;23.83
6942;BME280;3510;43.200;27.920;2023-04-07T10:08:19;101152.50;;;19.84;23.94
6942;BME280;3510;43.200;27.920;2023-04-07T10:10:46;101146.19;;;21.14;22.98
6942;BME280;3510;43.200;27.920;2023-04-07T10:13:15;101129.09;;;20.95;22.71
6942;BME280;3510;43.200;27.920;2023-04-07T10:15:42;101149.06;;;21.77;22.22
6942;BME280;3510;43.200;27.920;2023-04-07T10:18:09;101127.66;;;21.02;22.76
6942;BME280;3510;43.200;27.920;2023-04-07T10:20:38;101157.94;;;19.74;24.34
6942;BME280;3510;43.200;27.920;2023-04-07T10:23:14;101153.84;;;19.77;24.34
6942;BME280;3510;43.200;27.920;2023-04-07T10:25:42;101154.50;;;20.57;23.81
6942;BME280;3510;43.200;27.920;2023-04-07T10:28:12;101158.06;;;20.10;23.98
6942;BME280;3510;43.200;27.920;2023-04-07T10:30:40;101161.47;;;20.26;24.30
6942;BME280;3510;43.200;27.920;2023-04-07T10:33:07;101141.78;;;19.75;24.21
6942;BME280;3510;43.200;27.920;2023-04-07T10:36:02;101160.56;;;19.61;24.66
6942;BME280;3510;43.200;27.920;2023-04-07T10:38:30;101147.50;;;20.36;24.12
6942;BME280;3510;43.200;27.920;2023-04-07T10:40:58;101149.16;;;19.54;24.95
6942;BME280;3510;43.200;27.920;2023-04-07T10:43:36;101155.09;;;21.05;23.54
6942;BME280;3510;43.200;27.920;2023-04-07T10:46:03;101155.56;;;20.96;23.21
6942;BME280;3510;43.200;27.920;2023-04-07T10:48:30;101153.03;;;20.79;23.32
6942;BME280;3510;43.200;27.920;2023-04-07T10:51:13;101163.44;;;21.36;23.25
6942;BME280;3510;43.200;27.920;2023-04-07T10:59:37;101147.13;;;20.46;24.09
6942;BME280;3510;43.200;27.920;2023-04-07T11:04:56;101153.22;;;21.56;23.20
6942;BME280;3510;43.200;27.920;2023-04-07T11:07:46;101147.94;;;20.62;23.79
6942;BME280;3510;43.200;27.920;2023-04-07T11:10:14;101157.88;;;21.09;23.30
6942;BME280;3510;43.200;27.920;2023-04-07T11:12:57;101149.00;;;22.35;21.83
6942;BME280;3510;43.200;27.920;2023-04-07T11:15:25;101152.31;;;22.13;21.92
6942;BME280;3510;43.200;27.920;2023-04-07T11:18:06;101150.78;;;22.36;21.96
6942;BME280;3510;43.200;27.920;2023-04-07T11:20:43;101154.09;;;21.75;22.31
6942;BME280;3510;43.200;27.920;2023-04-07T11:23:11;101162.25;;;21.30;22.55
6942;BME280;3510;43.200;27.920;2023-04-07T11:25:38;101172.31;;;21.82;22.48
6942;BME280;3510;43.200;27.920;2023-04-07T11:28:08;101149.41;;;22.65;21.53
6942;BME280;3510;43.200;27.920;2023-04-07T11:30:37;101157.44;;;22.94;21.27
6942;BME280;3510;43.200;27.920;2023-04-07T11:33:04;101157.41;;;22.31;21.99
6942;BME280;3510;43.200;27.920;2023-04-07T11:35:31;101155.94;;;23.66;20.67
6942;BME280;3510;43.200;27.920;2023-04-07T11:37:58;101145.16;;;22.66;21.53
6942;BME280;3510;43.200;27.920;2023-04-07T11:40:34;101142.50;;;22.03;21.85
6942;BME280;3510;43.200;27.920;2023-04-07T11:43:01;101152.84;;;23.08;21.46
6942;BME280;3510;43.200;27.920;2023-04-07T11:45:29;101144.56;;;23.37;20.79
6942;BME280;3510;43.200;27.920;2023-04-07T11:47:57;101156.53;;;24.07;20.33
6942;BME280;3510;43.200;27.920;2023-04-07T11:50:38;101144.13;;;24.72;19.83
6942;BME280;3510;43.200;27.920;2023-04-07T11:53:08;101125.84;;;22.32;21.67
6942;BME280;3510;43.200;27.920;2023-04-07T11:55:35;101149.69;;;23.37;21.22
6942;BME280;3510;43.200;27.920;2023-04-07T11:58:06;101122.03;;;22.43;21.85
6942;BME280;3510;43.200;27.920;2023-04-07T12:00:52;101164.56;;;21.80;22.41
6942;BME280;3510;43.200;27.920;2023-04-07T12:03:22;101157.78;;;21.81;22.80
6942;BME280;3510;43.200;27.920;2023-04-07T12:05:52;101148.75;;;22.10;22.24
6942;BME280;3510;43.200;27.920;2023-04-07T12:08:20;101157.34;;;21.71;22.84
6942;BME280;3510;43.200;27.920;2023-04-07T12:10:47;101146.84;;;20.92;23.85
6942;BME280;3510;43.200;27.920;2023-04-07T12:13:14;101155.25;;;22.02;23.01
6942;BME280;3510;43.200;27.920;2023-04-07T12:15:41;101150.66;;;21.56;23.18
6942;BME280;3510;43.200;27.920;2023-04-07T12:18:08;101151.00;;;21.63;22.99
6942;BME280;3510;43.200;27.920;2023-04-07T12:20:36;101120.00;;;21.96;22.98
6942;BME280;3510;43.200;27.920;2023-04-07T12:23:03;101148.16;;;23.20;22.23
6942;BME280;3510;43.200;27.920;2023-04-07T12:25:30;101039.84;;;24.04;21.73
6942;BME280;3510;43.200;27.920;2023-04-07T12:27:57;101130.38;;;24.45;21.78
6942;BME280;3510;43.200;27.920;2023-04-07T12:30:26;101080.94;;;26.02;21.55
6942;BME280;3510;43.200;27.920;2023-04-07T12:32:53;101145.53;;;27.93;19.44
6942;BME280;3510;43.200;27.920;2023-04-07T12:35:20;101109.94;;;28.31;19.18
6942;BME280;3510;43.200;27.920;2023-04-07T12:37:49;101148.94;;;27.92;20.63
6942;BME280;3510;43.200;27.920;2023-04-07T12:40:17;101117.72;;;25.95;23.69
6942;BME280;3510;43.200;27.920;2023-04-07T12:42:44;101148.78;;;24.57;25.59
6942;BME280;3510;43.200;27.920;2023-04-07T12:45:12;101122.59;;;23.46;27.30
6942;BME280;3510;43.200;27.920;2023-04-07T12:47:39;101129.47;;;23.02;28.07
6942;BME280;3510;43.200;27.920;2023-04-07T12:50:10;101005.34;;;21.52;26.37
6942;BME280;3510;43.200;27.920;2023-04-07T12:52:37;101080.88;;;21.42;28.29
6942;BME280;3510;43.200;27.920;2023-04-07T12:55:07;101166.00;;;21.73;27.99
6942;BME280;3510;43.200;27.920;2023-04-07T12:57:34;101135.25;;;21.73;28.76
6942;BME280;3510;43.200;27.920;2023-04-07T13:00:03;101135.69;;;22.04;28.34
6942;BME280;3510;43.200;27.920;2023-04-07T13:02:31;101090.22;;;21.59;28.02
6942;BME280;3510;43.200;27.920;2023-04-07T13:05:01;101056.84;;;20.83;29.39
6942;BME280;3510;43.200;27.920;2023-04-07T13:07:30;101089.59;;;20.72;30.24
6942;BME280;3510;43.200;27.920;2023-04-07T13:10:10;101150.66;;;21.75;31.77
6942;BME280;3510;43.200;27.920;2023-04-07T13:12:37;101148.03;;;21.93;31.46
6942;BME280;3510;43.200;27.920;2023-04-07T13:15:06;101134.28;;;21.91;32.69
6942;BME280;3510;43.200;27.920;2023-04-07T13:17:33;101166.19;;;21.97;32.56
6942;BME280;3510;43.200;27.920;2023-04-07T13:20:02;101185.47;;;21.89;32.96
6942;BME280;3510;43.200;27.920;2023-04-07T13:22:29;101161.75;;;21.74;32.58
6942;BME280;3510;43.200;27.920;2023-04-07T13:25:18;101180.88;;;22.21;31.57
6942;BME280;3510;43.200;27.920;2023-04-07T13:27:46;101176.88;;;21.32;32.17
6942;BME280;3510;43.200;27.920;2023-04-07T13:30:22;101181.94;;;21.68;31.99
6942;BME280;3510;43.200;27.920;2023-04-07T13:32:52;101186.31;;;20.97;32.61
6942;BME280;3510;43.200;27.920;2023-04-07T13:35:19;101191.13;;;21.63;31.71
6942;BME280;3510;43.200;27.920;2023-04-07T13:38:02;101164.59;;;20.71;33.07
6942;BME280;3510;43.200;27.920;2023-04-07T13:40:35;101160.88;;;20.14;33.71
6942;BME280;3510;43.200;27.920;2023-04-07T13:43:01;101147.31;;;19.99;34.62
6942;BME280;3510;43.200;27.920;2023-04-07T13:45:28;101191.63;;;21.73;32.44
6942;BME280;3510;43.200;27.920;2023-04-07T13:47:57;101198.97;;;22.24;31.39
6942;BME280;3510;43.200;27.920;2023-04-07T13:50:25;101196.91;;;22.15;31.62
6942;BME280;3510;43.200;27.920;2023-04-07T13:53:05;101181.53;;;22.15;31.73
6942;BME280;3510;43.200;27.920;2023-04-07T14:11:27;101143.31;;;20.38;32.44
6942;BME280;3510;43.200;27.920;2023-04-07T14:13:54;101174.78;;;20.53;32.96